createdAt,value
2018-04-06T00:02:24.184Z,96356.89
2018-04-06T00:04:52.494Z,96359.29
2018-04-06T00:07:20.941Z,96363.19
2018-04-06T00:09:49.250Z,96358.64
2018-04-06T00:12:17.604Z,96366.91
2018-04-06T00:14:45.970Z,96365.53
2018-04-06T00:17:14.284Z,96363.45
2018-04-06T00:19:42.632Z,96365.28
2018-04-06T00:22:10.944Z,96371.91
2018-04-06T00:24:39.274Z,96372.81
2018-04-06T00:27:07.575Z,96379.00
2018-04-06T00:29:35.910Z,96375.39
2018-04-06T00:32:04.215Z,96365.86
2018-04-06T00:34:32.587Z,96363.63
2018-04-06T00:37:00.983Z,96365.53
2018-04-06T00:39:29.303Z,96370.48
2018-04-06T00:41:57.668Z,96365.37
2018-04-06T00:44:25.998Z,96365.41
2018-04-06T00:46:54.312Z,96361.79
2018-04-06T00:49:22.654Z,96362.67
2018-04-06T00:51:50.956Z,96365.10
2018-04-06T00:54:19.290Z,96366.13
2018-04-06T00:56:47.654Z,96371.83
2018-04-06T00:59:16.070Z,96371.91
2018-04-06T01:01:44.444Z,96367.08
2018-04-06T01:04:12.819Z,96364.91
2018-04-06T01:06:41.135Z,96365.39
2018-04-06T01:09:09.839Z,96370.35
2018-04-06T01:11:38.163Z,96368.20
2018-04-06T01:14:06.561Z,96369.27
2018-04-06T01:16:34.880Z,96367.31
2018-04-06T01:19:03.175Z,96362.25
2018-04-06T01:21:31.517Z,96364.59
2018-04-06T01:23:59.814Z,96363.59
2018-04-06T01:26:28.219Z,96358.20
2018-04-06T01:28:56.530Z,96361.07
2018-04-06T01:31:24.859Z,96362.56
2018-04-06T01:33:53.172Z,96369.94
2018-04-06T01:36:21.532Z,96365.67
2018-04-06T01:38:49.855Z,96375.78
2018-04-06T01:41:18.176Z,96366.23
2018-04-06T01:43:46.559Z,96360.29
2018-04-06T01:46:14.953Z,96372.47
2018-04-06T01:48:44.195Z,96375.27
2018-04-06T01:51:12.625Z,96370.36
2018-04-06T01:53:41.003Z,96370.18
2018-04-06T01:56:09.376Z,96376.38
2018-04-06T01:58:37.723Z,96378.03
2018-04-06T02:01:06.207Z,96373.83
2018-04-06T02:03:34.601Z,96359.15
2018-04-06T02:06:02.913Z,96365.69
2018-04-06T02:08:31.282Z,96367.80
2018-04-06T02:10:59.590Z,96370.70
2018-04-06T02:13:27.930Z,96367.03
2018-04-06T02:15:56.317Z,96363.14
2018-04-06T02:18:24.688Z,96362.02
2018-04-06T02:20:52.989Z,96363.19
2018-04-06T02:23:21.334Z,96362.88
2018-04-06T02:25:49.659Z,96360.78
2018-04-06T02:28:17.994Z,96357.43
2018-04-06T02:30:46.371Z,96355.05
2018-04-06T02:33:14.760Z,96357.84
2018-04-06T02:35:43.054Z,96355.55
2018-04-06T02:38:11.399Z,96355.78
2018-04-06T02:40:39.721Z,96360.53
2018-04-06T02:43:08.154Z,96363.23
2018-04-06T02:45:36.639Z,96357.58
2018-04-06T02:48:05.043Z,96359.51
2018-04-06T02:50:33.387Z,96358.58
2018-04-06T02:53:01.706Z,96363.29
2018-04-06T02:55:30.039Z,96358.03
2018-04-06T02:57:58.430Z,96356.91
2018-04-06T03:00:26.771Z,96360.02
2018-04-06T03:02:55.095Z,96355.45
2018-04-06T03:05:23.470Z,96356.61
2018-04-06T03:07:51.814Z,96352.66
2018-04-06T03:10:20.221Z,96355.31
2018-04-06T03:12:48.541Z,96357.70
2018-04-06T03:15:16.896Z,96362.15
2018-04-06T03:17:45.209Z,96369.23
2018-04-06T03:20:13.623Z,96365.47
2018-04-06T03:22:41.941Z,96353.75
2018-04-06T03:25:10.285Z,96356.36
2018-04-06T03:27:38.578Z,96353.81
2018-04-06T03:30:06.939Z,96358.00
2018-04-06T03:32:35.271Z,96350.67
2018-04-06T03:35:03.686Z,96356.42
2018-04-06T03:37:32.666Z,96351.45
2018-04-06T03:40:01.006Z,96354.81
2018-04-06T03:42:29.338Z,96357.14
2018-04-06T03:44:57.714Z,96351.76
2018-04-06T03:47:26.039Z,96352.13
2018-04-06T03:49:54.378Z,96356.88
2018-04-06T03:52:22.695Z,96352.08
2018-04-06T03:54:51.042Z,96352.78
2018-04-06T03:57:19.361Z,96347.10
2018-04-06T03:59:47.995Z,96350.22
2018-04-06T04:02:16.339Z,96340.12
2018-04-06T04:04:44.647Z,96342.63
2018-04-06T04:07:12.989Z,96341.97
2018-04-06T04:09:41.299Z,96344.81
2018-04-06T04:12:09.787Z,96336.45
2018-04-06T04:14:38.090Z,96339.56
2018-04-06T04:17:06.434Z,96335.33
2018-04-06T04:19:34.773Z,96341.79
2018-04-06T04:22:03.138Z,96341.91
2018-04-06T04:24:31.462Z,96335.63
2018-04-06T04:26:59.952Z,96338.05
2018-04-06T04:29:28.282Z,96337.25
2018-04-06T04:31:56.648Z,96336.55
2018-04-06T04:34:24.636Z,96334.53
2018-04-06T04:36:52.835Z,96341.23
2018-04-06T04:39:22.120Z,96340.45
2018-04-06T04:41:50.471Z,96342.71
2018-04-06T04:44:18.810Z,96344.96
2018-04-06T04:46:47.211Z,96351.72
2018-04-06T04:49:15.523Z,96352.41
2018-04-06T04:51:43.874Z,96352.09
2018-04-06T04:54:12.255Z,96360.86
2018-04-06T04:56:40.587Z,96358.58
2018-04-06T04:59:08.919Z,96355.63
2018-04-06T05:01:37.296Z,96358.27
2018-04-06T05:04:05.722Z,96359.06
2018-04-06T05:06:34.040Z,96351.77
2018-04-06T05:09:02.376Z,96349.25
2018-04-06T05:11:30.754Z,96354.20
2018-04-06T05:13:59.111Z,96352.45
2018-04-06T05:16:27.433Z,96359.98
2018-04-06T05:18:55.792Z,96357.55
2018-04-06T05:21:24.126Z,96354.62
2018-04-06T05:23:52.503Z,96350.09
2018-04-06T05:26:20.852Z,96356.60
2018-04-06T05:28:49.359Z,96356.59
2018-04-06T05:31:17.674Z,96355.45
2018-04-06T05:33:46.039Z,96358.72
2018-04-06T05:36:14.380Z,96361.85
2018-04-06T05:38:42.862Z,96364.73
2018-04-06T05:41:11.167Z,96358.40
2018-04-06T05:43:39.517Z,96362.29
2018-04-06T05:46:08.619Z,96362.42
2018-04-06T05:48:37.150Z,96363.16
2018-04-06T05:51:05.487Z,96365.13
2018-04-06T05:53:33.927Z,96364.97
2018-04-06T05:56:02.266Z,96364.61
2018-04-06T05:58:30.603Z,96367.19
2018-04-06T06:00:59.652Z,96369.92
2018-04-06T06:03:28.315Z,96368.44
2018-04-06T06:05:56.737Z,96372.04
2018-04-06T06:08:25.110Z,96380.91
2018-04-06T06:10:53.521Z,96372.20
2018-04-06T06:13:21.826Z,96370.58
2018-04-06T06:15:50.278Z,96372.96
2018-04-06T06:18:18.587Z,96375.80
2018-04-06T06:20:46.918Z,96375.98
2018-04-06T06:23:15.285Z,96367.04
2018-04-06T06:25:43.645Z,96365.73
2018-04-06T06:28:11.960Z,96378.25
2018-04-06T06:30:40.307Z,96369.25
2018-04-06T06:33:08.683Z,96364.25
2018-04-06T06:35:37.363Z,96369.22
2018-04-06T06:38:05.739Z,96366.22
2018-04-06T06:40:34.076Z,96370.44
2018-04-06T06:43:02.421Z,96368.52
2018-04-06T06:45:30.783Z,96367.48
2018-04-06T06:47:59.142Z,96373.47
2018-04-06T06:50:27.458Z,96376.73
2018-04-06T06:52:55.949Z,96373.89
2018-04-06T06:55:24.259Z,96378.30
2018-04-06T06:57:52.682Z,96383.61
2018-04-06T07:00:21.046Z,96377.84
2018-04-06T07:02:49.464Z,96377.16
2018-04-06T07:05:17.788Z,96373.61
2018-04-06T07:07:46.195Z,96370.19
2018-04-06T07:10:14.541Z,96369.06
2018-04-06T07:12:42.949Z,96357.23
2018-04-06T07:15:11.303Z,96371.20
2018-04-06T07:17:39.702Z,96370.55
2018-04-06T07:20:08.031Z,96370.52
2018-04-06T07:22:36.491Z,96365.53
2018-04-06T07:25:04.943Z,96373.61
2018-04-06T07:27:33.999Z,96370.38
2018-04-06T07:30:02.427Z,96372.41
2018-04-06T07:32:30.771Z,96373.10
2018-04-06T07:34:59.166Z,96377.50
2018-04-06T07:37:27.494Z,96374.73
2018-04-06T07:39:55.854Z,96370.82
2018-04-06T07:42:24.171Z,96362.08
2018-04-06T07:44:52.521Z,96367.34
2018-04-06T07:47:20.954Z,96371.73
2018-04-06T07:49:49.341Z,96371.74
2018-04-06T07:52:17.674Z,96367.83
2018-04-06T07:54:46.022Z,96370.42
2018-04-06T07:57:14.370Z,96369.89
2018-04-06T07:59:42.733Z,96371.50
2018-04-06T08:02:11.051Z,96368.50
2018-04-06T08:04:39.493Z,96366.56
2018-04-06T08:07:07.820Z,96372.44
2018-04-06T08:09:36.244Z,96369.96
2018-04-06T08:12:04.563Z,96367.34
2018-04-06T08:14:32.915Z,96370.01
2018-04-06T08:17:01.260Z,96367.83
2018-04-06T08:19:29.582Z,96368.44
2018-04-06T08:21:57.934Z,96367.52
2018-04-06T08:24:26.262Z,96371.83
2018-04-06T08:26:54.690Z,96367.38
2018-04-06T08:29:23.019Z,96360.20
2018-04-06T08:31:51.356Z,96363.88
2018-04-06T08:34:19.726Z,96361.59
2018-04-06T08:36:49.037Z,96359.97
2018-04-06T08:39:17.357Z,96358.02
2018-04-06T08:41:45.713Z,96362.95
2018-04-06T08:44:14.033Z,96353.50
2018-04-06T08:46:42.383Z,96353.38
2018-04-06T08:49:10.719Z,96351.47
2018-04-06T08:51:39.089Z,96349.13
2018-04-06T08:54:07.423Z,96346.05
2018-04-06T08:56:35.859Z,96344.78
2018-04-06T08:59:04.179Z,96347.81
2018-04-06T09:01:32.527Z,96344.57
2018-04-06T09:04:00.846Z,96337.97
2018-04-06T09:06:29.270Z,96340.42
2018-04-06T09:08:57.650Z,96330.64
2018-04-06T09:11:26.022Z,96334.60
2018-04-06T09:13:54.440Z,96334.23
2018-04-06T09:16:22.806Z,96331.22
2018-04-06T09:18:51.119Z,96327.20
2018-04-06T09:21:19.462Z,96326.18
2018-04-06T09:23:47.808Z,96327.67
2018-04-06T09:26:16.207Z,96324.66
2018-04-06T09:28:44.575Z,96319.75
2018-04-06T09:31:12.962Z,96318.09
2018-04-06T09:33:41.331Z,96306.88
2018-04-06T09:36:09.662Z,96306.03
2018-04-06T09:38:38.006Z,96300.75
2018-04-06T09:41:06.331Z,96302.06
2018-04-06T09:43:34.766Z,96298.70
2018-04-06T09:46:03.087Z,96295.45
2018-04-06T09:48:31.446Z,96290.59
2018-04-06T09:50:59.772Z,96286.97
2018-04-06T09:53:28.127Z,96283.27
2018-04-06T09:55:56.472Z,96284.28
2018-04-06T09:58:24.906Z,96280.14
2018-04-06T10:00:59.071Z,96280.07
2018-04-06T10:03:27.440Z,96281.70
2018-04-06T10:05:55.777Z,96274.77
2018-04-06T10:08:24.154Z,96273.53
2018-04-06T10:10:52.510Z,96276.86
2018-04-06T10:13:20.910Z,96275.55
2018-04-06T10:15:49.285Z,96264.72
2018-04-06T10:18:17.630Z,96267.37
2018-04-06T10:20:45.957Z,96259.66
2018-04-06T10:23:14.324Z,96255.70
2018-04-06T10:25:42.707Z,96253.78
2018-04-06T10:28:11.096Z,96252.45
2018-04-06T10:30:39.465Z,96249.94
2018-04-06T10:33:07.781Z,96233.02
2018-04-06T10:35:36.127Z,96230.67
2018-04-06T10:38:04.495Z,96225.36
2018-04-06T10:40:32.913Z,96221.95
2018-04-06T10:43:01.192Z,96227.48
2018-04-06T10:45:29.546Z,96221.62
2018-04-06T10:47:57.866Z,96210.96
2018-04-06T10:50:26.230Z,96217.00
2018-04-06T10:52:54.650Z,96216.01
2018-04-06T10:55:23.069Z,96216.73
2018-04-06T10:57:51.378Z,96205.64
2018-04-06T11:00:19.732Z,96193.84
2018-04-06T11:02:48.061Z,96203.97
2018-04-06T11:05:16.396Z,96202.09
2018-04-06T11:07:44.739Z,96196.42
2018-04-06T11:10:13.102Z,96199.77
2018-04-06T11:12:41.406Z,96192.34
2018-04-06T11:15:09.769Z,96190.42
2018-04-06T11:17:38.085Z,96181.16
2018-04-06T11:20:06.426Z,96178.19
2018-04-06T11:22:34.778Z,96179.03
2018-04-06T11:25:03.133Z,96178.12
2018-04-06T11:27:31.457Z,96173.06
2018-04-06T11:29:59.969Z,96164.32
2018-04-06T11:32:28.316Z,96173.12
2018-04-06T11:34:56.731Z,96167.78
2018-04-06T11:37:25.055Z,96168.80
2018-04-06T11:39:53.388Z,96165.22
2018-04-06T11:42:21.734Z,96164.17
2018-04-06T11:44:50.044Z,96162.69
2018-04-06T11:47:18.399Z,96163.45
2018-04-06T11:49:46.714Z,96166.94
2018-04-06T11:52:15.091Z,96157.80
2018-04-06T11:54:43.432Z,96147.31
2018-04-06T11:57:11.874Z,96149.12
2018-04-06T11:59:40.254Z,96143.06
2018-04-06T12:02:08.614Z,96130.30
2018-04-06T12:04:36.984Z,96138.47
2018-04-06T12:07:05.334Z,96137.13
2018-04-06T12:09:33.669Z,96127.25
2018-04-06T12:12:02.043Z,96130.22
2018-04-06T12:14:30.432Z,96123.03
2018-04-06T12:16:58.771Z,96118.77
2018-04-06T12:19:27.204Z,96118.90
2018-04-06T12:21:55.560Z,96104.59
2018-04-06T12:24:23.873Z,96103.14
2018-04-06T12:26:52.659Z,96098.30
2018-04-06T12:29:20.979Z,96100.13
2018-04-06T12:31:49.318Z,96099.72
2018-04-06T12:34:17.690Z,96086.72
2018-04-06T12:36:45.998Z,96088.48
2018-04-06T12:39:14.414Z,96084.14
2018-04-06T12:41:42.732Z,96085.92
2018-04-06T12:44:11.151Z,96077.86
2018-04-06T12:46:39.554Z,96074.59
2018-04-06T12:49:07.930Z,96069.97
2018-04-06T12:51:36.246Z,96068.60
2018-04-06T12:54:04.593Z,96057.34
2018-04-06T12:56:32.923Z,96069.41
2018-04-06T12:59:01.373Z,96058.98
2018-04-06T13:01:29.713Z,96058.58
2018-04-06T13:03:58.091Z,96060.89
2018-04-06T13:06:26.415Z,96050.36
2018-04-06T13:08:54.895Z,96055.23
2018-04-06T13:11:23.205Z,96052.56
2018-04-06T13:13:51.558Z,96049.41
2018-04-06T13:16:19.893Z,96056.32
2018-04-06T13:18:48.274Z,96049.64
2018-04-06T13:21:16.806Z,96047.45
2018-04-06T13:23:45.119Z,96049.53
2018-04-06T13:26:13.506Z,96039.36
2018-04-06T13:28:41.834Z,96035.83
2018-04-06T13:31:10.273Z,96029.56
2018-04-06T13:33:38.566Z,96023.92
2018-04-06T13:36:07.006Z,96025.80
2018-04-06T13:38:35.333Z,96018.24
2018-04-06T13:41:03.685Z,96018.14
2018-04-06T13:43:32.007Z,96015.88
2018-04-06T13:46:00.347Z,96010.27
2018-04-06T13:48:28.664Z,96011.80
2018-04-06T13:50:57.081Z,96011.67
2018-04-06T13:53:25.409Z,96005.52
2018-04-06T13:55:53.836Z,96006.95
2018-04-06T13:58:22.159Z,96006.08
2018-04-06T14:00:50.604Z,96000.37
2018-04-06T14:03:18.975Z,95998.38
2018-04-06T14:05:47.299Z,96001.64
2018-04-06T14:08:15.687Z,95999.48
2018-04-06T14:10:44.080Z,95997.17
2018-04-06T14:13:12.494Z,95998.38
2018-04-06T14:15:40.837Z,95990.84
2018-04-06T14:18:09.173Z,95997.46
2018-04-06T14:20:37.618Z,95989.90
2018-04-06T14:23:06.020Z,95996.58
2018-04-06T14:25:34.351Z,95995.67
2018-04-06T14:28:02.747Z,95980.51
2018-04-06T14:30:31.131Z,95980.80
2018-04-06T14:32:59.539Z,95982.32
2018-04-06T14:35:27.857Z,95978.25
2018-04-06T14:37:56.216Z,95976.13
2018-04-06T14:40:24.531Z,95975.28
2018-04-06T14:42:52.872Z,95981.25
2018-04-06T14:45:21.199Z,95974.34
2018-04-06T14:47:49.574Z,95972.63
2018-04-06T14:50:17.946Z,95972.80
2018-04-06T14:52:46.327Z,95974.17
2018-04-06T14:55:14.646Z,95967.95
2018-04-06T14:57:42.982Z,95973.27
2018-04-06T15:00:11.383Z,95967.38
2018-04-06T15:02:39.714Z,95967.57
2018-04-06T15:05:08.047Z,95965.48
2018-04-06T15:07:36.406Z,95963.65
2018-04-06T15:10:04.811Z,95957.36
2018-04-06T15:12:33.141Z,95965.69
2018-04-06T15:15:01.615Z,95959.06
2018-04-06T15:17:30.015Z,95960.42
2018-04-06T15:19:58.382Z,95960.83
2018-04-06T15:22:26.735Z,95955.05
2018-04-06T15:24:55.139Z,95955.72
2018-04-06T15:27:23.498Z,95954.23
2018-04-06T15:29:52.758Z,95951.98
2018-04-06T15:32:21.089Z,95951.02
2018-04-06T15:34:49.406Z,95950.36
2018-04-06T15:37:17.766Z,95952.83
2018-04-06T15:39:46.080Z,95945.43
2018-04-06T15:42:14.506Z,95944.03
2018-04-06T15:44:42.852Z,95933.80
2018-04-06T15:47:11.195Z,95936.41
2018-04-06T15:49:39.521Z,95935.23
2018-04-06T15:52:07.959Z,95935.53
2018-04-06T15:54:36.256Z,95936.66
2018-04-06T15:57:04.669Z,95937.84
2018-04-06T15:59:32.999Z,95939.88
2018-04-06T16:02:01.427Z,95935.77
2018-04-06T16:04:29.810Z,95940.72
2018-04-06T16:06:58.142Z,95944.55
2018-04-06T16:09:26.466Z,95938.86
2018-04-06T16:11:54.822Z,95939.52
2018-04-06T16:14:23.174Z,95938.80
2018-04-06T16:16:51.544Z,95941.09
2018-04-06T16:19:19.906Z,95936.48
2018-04-06T16:21:48.233Z,95930.19
2018-04-06T16:24:16.605Z,95938.14
2018-04-06T16:26:44.950Z,95937.83
2018-04-06T16:29:13.297Z,95936.95
2018-04-06T16:31:41.613Z,95938.02
2018-04-06T16:34:10.035Z,95933.66
2018-04-06T16:36:38.350Z,95937.13
2018-04-06T16:39:06.689Z,95935.97
2018-04-06T16:41:34.986Z,95940.02
2018-04-06T16:44:03.348Z,95939.41
2018-04-06T16:46:31.676Z,95934.09
2018-04-06T16:49:00.051Z,95932.34
2018-04-06T16:51:28.382Z,95928.75
2018-04-06T16:53:56.726Z,95927.02
2018-04-06T16:56:25.065Z,95931.31
2018-04-06T16:58:53.410Z,95938.55
2018-04-06T17:01:21.744Z,95934.56
2018-04-06T17:03:50.323Z,95944.42
2018-04-06T17:06:18.651Z,95944.28
2018-04-06T17:08:47.073Z,95942.62
2018-04-06T17:11:15.455Z,95946.75
2018-04-06T17:13:43.782Z,95937.17
2018-04-06T17:16:12.131Z,95944.14
2018-04-06T17:18:40.451Z,95947.73
2018-04-06T17:21:08.805Z,95943.64
2018-04-06T17:23:37.130Z,95948.95
2018-04-06T17:26:05.478Z,95950.49
2018-04-06T17:28:33.854Z,95953.22
2018-04-06T17:31:02.206Z,95965.62
2018-04-06T17:33:30.561Z,95959.72
2018-04-06T17:35:58.908Z,95959.11
2018-04-06T17:38:27.226Z,95965.38
2018-04-06T17:40:55.557Z,95959.17
2018-04-06T17:43:23.879Z,95963.05
2018-04-06T17:45:52.307Z,95960.41
2018-04-06T17:48:20.632Z,95960.67
2018-04-06T17:50:49.053Z,95975.33
2018-04-06T17:53:18.113Z,95972.92
2018-04-06T17:55:46.526Z,95978.98
2018-04-06T17:58:14.910Z,95982.09
2018-04-06T18:00:43.296Z,95981.19
2018-04-06T18:03:11.626Z,95979.21
2018-04-06T18:05:40.243Z,95979.65
2018-04-06T18:08:08.566Z,95983.95
2018-04-06T18:10:36.874Z,95983.45
2018-04-06T18:13:05.209Z,95979.25
2018-04-06T18:15:33.557Z,95980.11
2018-04-06T18:18:01.935Z,95981.80
2018-04-06T18:20:30.305Z,95983.01
2018-04-06T18:22:58.668Z,95985.44
2018-04-06T18:25:26.976Z,95991.05
2018-04-06T18:27:55.316Z,95992.22
2018-04-06T18:30:23.636Z,95994.28
2018-04-06T18:32:52.041Z,95994.16
2018-04-06T18:35:20.351Z,95991.53
2018-04-06T18:37:48.707Z,95989.92
2018-04-06T18:40:17.042Z,95991.45
2018-04-06T18:42:45.474Z,95993.34
2018-04-06T18:45:13.804Z,95996.36
2018-04-06T18:47:42.166Z,95991.40
2018-04-06T18:50:10.524Z,95992.23
2018-04-06T18:52:38.866Z,95987.80
2018-04-06T18:55:07.222Z,95986.37
2018-04-06T18:57:35.566Z,95992.09
2018-04-06T19:00:03.925Z,95988.21
2018-04-06T19:02:32.275Z,95985.09
2018-04-06T19:05:00.599Z,95982.39
2018-04-06T19:07:29.019Z,95978.55
2018-04-06T19:09:57.335Z,95986.00
2018-04-06T19:12:25.749Z,95975.03
2018-04-06T19:14:54.163Z,95976.06
2018-04-06T19:17:22.512Z,95983.20
2018-04-06T19:19:50.878Z,95975.08
2018-04-06T19:22:19.206Z,95971.61
2018-04-06T19:24:47.554Z,95972.02
2018-04-06T19:27:16.032Z,95971.83
2018-04-06T19:29:44.392Z,95970.06
2018-04-06T19:32:12.710Z,95969.19
2018-04-06T19:34:41.150Z,95967.97
2018-04-06T19:37:09.585Z,95966.72
2018-04-06T19:39:37.934Z,95972.09
2018-04-06T19:42:06.277Z,95966.34
2018-04-06T19:44:34.687Z,95968.08
2018-04-06T19:47:03.019Z,95969.30
2018-04-06T19:49:31.425Z,95972.40
2018-04-06T19:51:59.672Z,95970.02
2018-04-06T19:54:28.027Z,95965.78
2018-04-06T19:56:56.469Z,95959.91
2018-04-06T19:59:24.870Z,95966.35
2018-04-06T20:01:53.185Z,95955.99
2018-04-06T20:04:21.587Z,95952.41
2018-04-06T20:06:49.930Z,95952.73
2018-04-06T20:09:18.314Z,95951.45
2018-04-06T20:11:46.762Z,95950.33
2018-04-06T20:14:15.208Z,95944.42
2018-04-06T20:16:43.568Z,95939.25
2018-04-06T20:19:11.900Z,95939.09
2018-04-06T20:21:40.256Z,95936.95
2018-04-06T20:24:08.709Z,95936.90
2018-04-06T20:26:37.066Z,95930.27
2018-04-06T20:29:05.409Z,95926.92
2018-04-06T20:31:33.763Z,95933.84
2018-04-06T20:34:02.118Z,95933.17
2018-04-06T20:36:30.511Z,95930.63
2018-04-06T20:38:58.885Z,95922.63
2018-04-06T20:41:27.371Z,95919.77
2018-04-06T20:43:55.730Z,95922.39
2018-04-06T20:46:24.079Z,95916.47
2018-04-06T20:48:52.442Z,95918.93
2018-04-06T20:51:20.816Z,95912.09
2018-04-06T20:53:49.200Z,95909.78
2018-04-06T20:56:17.594Z,95910.61
2018-04-06T20:58:45.931Z,95904.58
2018-04-06T21:01:15.190Z,95900.16
2018-04-06T21:03:43.582Z,95901.62
2018-04-06T21:06:11.964Z,95901.03
2018-04-06T21:08:40.299Z,95901.63
2018-04-06T21:11:08.634Z,95897.38
2018-04-06T21:13:37.107Z,95902.16
2018-04-06T21:16:05.475Z,95896.81
2018-04-06T21:18:33.855Z,95889.97
2018-04-06T21:21:02.388Z,95889.53
2018-04-06T21:23:30.813Z,95887.22
2018-04-06T21:25:59.145Z,95884.64
2018-04-06T21:28:27.574Z,95891.34
2018-04-06T21:30:55.955Z,95880.78
2018-04-06T21:33:24.333Z,95886.06
2018-04-06T21:35:52.642Z,95883.09
2018-04-06T21:38:21.500Z,95883.91
2018-04-06T21:40:49.818Z,95887.55
2018-04-06T21:43:18.241Z,95882.73
2018-04-06T21:45:46.558Z,95881.47
2018-04-06T21:48:14.905Z,95879.27
2018-04-06T21:50:43.214Z,95880.03
2018-04-06T21:53:11.624Z,95875.34
2018-04-06T21:55:39.948Z,95869.96
2018-04-06T21:58:08.313Z,95874.64
2018-04-06T22:00:36.726Z,95864.95
2018-04-06T22:03:05.091Z,95869.56
2018-04-06T22:05:33.416Z,95866.28
2018-04-06T22:08:01.740Z,95859.70
2018-04-06T22:10:30.065Z,95860.02
2018-04-06T22:12:58.445Z,95861.93
2018-04-06T22:15:26.774Z,95866.36
2018-04-06T22:17:55.097Z,95861.91
2018-04-06T22:20:23.450Z,95856.63
2018-04-06T22:22:51.898Z,95852.45
2018-04-06T22:25:20.278Z,95855.48
2018-04-06T22:27:48.700Z,95852.34
2018-04-06T22:30:17.029Z,95846.74
2018-04-06T22:32:45.369Z,95844.22
2018-04-06T22:35:13.789Z,95850.95
2018-04-06T22:37:42.125Z,95849.67
2018-04-06T22:40:10.463Z,95846.76
2018-04-06T22:42:38.767Z,95845.49
2018-04-06T22:45:07.198Z,95843.91
2018-04-06T22:47:35.490Z,95837.71
2018-04-06T22:50:03.855Z,95839.37
2018-04-06T22:52:32.166Z,95844.45
2018-04-06T22:55:00.512Z,95843.72
2018-04-06T22:57:28.892Z,95837.47
2018-04-06T22:59:57.197Z,95833.61
2018-04-06T23:02:25.542Z,95833.05
2018-04-06T23:04:53.910Z,95837.88
2018-04-06T23:07:22.257Z,95836.91
2018-04-06T23:09:50.571Z,95831.47
2018-04-06T23:12:18.927Z,95830.71
2018-04-06T23:14:47.239Z,95824.74
2018-04-06T23:17:15.630Z,95824.22
2018-04-06T23:19:43.948Z,95822.56
2018-04-06T23:22:13.175Z,95817.12
2018-04-06T23:24:41.482Z,95818.77
2018-04-06T23:27:09.835Z,95808.66
2018-04-06T23:29:38.177Z,95807.15
2018-04-06T23:32:06.511Z,95808.75
2018-04-06T23:34:34.862Z,95804.77
2018-04-06T23:37:03.210Z,95804.20
2018-04-06T23:39:31.529Z,95807.20
2018-04-06T23:41:59.898Z,95806.80
2018-04-06T23:44:28.212Z,95802.75
2018-04-06T23:46:56.553Z,95808.42
2018-04-06T23:49:24.930Z,95801.31
2018-04-06T23:51:53.323Z,95801.20
2018-04-06T23:54:21.621Z,95800.83
2018-04-06T23:56:49.974Z,95796.14
2018-04-06T23:59:18.314Z,95793.39
